Us Warship 105 — NDWY — position and weather

sailwx.info

Track history (hours):
 
Tides and Currents Weather Stations Pressure Air Temp Water Temp Dewpoint Dewpoint Depression Visibility Wind Speed Wind Dir Waves Ship Positions

Us Warship 105

Last reported at 2018-Feb-10 08:44 UTC. Time now 2018-Apr-21 02:17 UTC.
Position N 32°45' W 118°09'.
Warning: this ship's position is months out of date.

Type: Military. MMSI: 382933000.

Date/timePositionNaut miles runAvg speedWind from/ knotsBaromVisibWave heightAir tempDewpointWater temp
2018-Feb-10 08:44N 32°45' W 118°09'0 2.0
2018-Feb-10 08:29N 32°45' W 118°09'5 9.1
2018-Feb-10 07:59N 32°42' W 118°14'810.4
2018-Feb-10 07:13N 32°50' W 118°14'2 7.8
2018-Feb-10 07:00N 32°52' W 118°14'11 8.0
2018-Feb-10 05:35N 32°41' W 118°14'1 9.6
2018-Feb-10 05:30N 32°40' W 118°14'5 9.1
2018-Feb-10 05:01N 32°36' W 118°11'4 8.1
2018-Feb-10 04:30N 32°37' W 118°06'3 6.3
2018-Feb-10 04:00N 32°40' W 118°05'714.1
2018-Feb-10 03:29N 32°40' W 117°56'815.8
2018-Feb-10 03:00N 32°37' W 117°47'916.6
2018-Feb-10 02:30N 32°36' W 117°37'1016.1
2018-Feb-10 01:54N 32°36' W 117°26'6 7.7
2018-Feb-10 01:04N 32°35' W 117°18'0 2.5
2018-Feb-10 01:00N 32°36' W 117°18'714.1
2018-Feb-10 00:30N 32°39' W 117°25'1 1.7
2018-Feb-10 00:00N 32°39' W 117°26'2 3.0
2018-Feb-09 23:29N 32°38' W 117°25'5 3.0
2018-Feb-09 21:55N 32°37' W 117°19'2 1.6
2018-Feb-09 20:31N 32°35' W 117°19'4 8.5
2018-Feb-09 20:00N 32°36' W 117°24'2323.0
2018-Feb-09 19:00N 32°52' W 117°44'1223.8
2018-Feb-09 18:30N 33°00' W 117°54'917.2
2018-Feb-09 18:00N 33°05' W 118°03'3517.3
2018-Feb-09 16:00N 32°44' W 117°30'3 3.1
2018-Feb-09 15:00N 32°42' W 117°33'4 8.3
2018-Feb-09 14:30N 32°43' W 117°38'4 8.9
2018-Feb-09 14:00N 32°44' W 117°43'1010.4
2018-Feb-09 13:01N 32°45' W 117°55'4 2.9
2018-Feb-09 11:30N 32°41' W 117°58'1 0.4
2018-Feb-09 09:00N 32°41' W 117°59'7 4.7
2018-Feb-09 07:30N 32°37' W 117°52'5 9.2
2018-Feb-09 07:00N 32°36' W 117°47'4 9.0
2018-Feb-09 06:30N 32°39' W 117°42'10 4.0
2018-Feb-09 04:00N 32°48' W 117°36'5 3.2
2018-Feb-09 02:30N 32°43' W 117°34'917.7
2018-Feb-09 02:00N 32°43' W 117°44'1413.6
2018-Feb-09 01:00N 32°40' W 117°60'612.9
2018-Feb-09 00:30N 32°40' W 118°08'612.9
2018-Feb-09 00:00N 32°40' W 118°15'1212.0
2018-Feb-08 23:00N 32°40' W 118°29'611.2
2018-Feb-08 22:30N 32°40' W 118°36'12 4.9
2018-Feb-08 20:00N 32°35' W 118°49'714.6
2018-Feb-08 19:30N 32°35' W 118°58'2 1.6
2018-Feb-08 18:00N 32°36' W 118°56'1313.2
2018-Feb-08 17:00N 32°36' W 118°40'3112.4
2018-Feb-08 14:30N 32°45' W 118°05'2 4.7
2018-Feb-08 14:00N 32°48' W 118°04'2 4.3
2018-Feb-08 13:30N 32°50' W 118°03'5 3.0
2018-Feb-08 12:00N 32°47' W 117°59'2 4.7
2018-Feb-08 11:30N 32°47' W 117°56'5 9.6
2018-Feb-08 11:00N 32°46' W 117°51'2 1.6
2018-Feb-08 10:00N 32°45' W 117°49'30 0.9
2018-Feb-07 00:37N 32°42' W 117°14'0 0.7
2018-Feb-07 00:29N 32°42' W 117°14'0 0.0
2018-Feb-07 00:00N 32°42' W 117°14'0 0.0
2018-Feb-06 23:30N 32°42' W 117°14'0 0.0
2018-Feb-06 23:00N 32°42' W 117°14'0 0.0
2018-Feb-06 22:00N 32°42' W 117°14'0 0.0
2018-Feb-06 21:00N 32°42' W 117°14'0 0.0
2018-Feb-06 20:29N 32°42' W 117°14'0 0.0
2018-Feb-06 20:00N 32°42' W 117°14'0 0.0
2018-Feb-06 19:27N 32°42' W 117°14'0 0.4
2018-Feb-06 18:56N 32°42' W 117°14'4 6.3
2018-Feb-06 18:22N 32°42' W 117°10'  
Track history (hours):
 
Tides and Currents Weather Stations Pressure Air Temp Water Temp Dewpoint Dewpoint Depression Visibility Wind Speed Wind Dir Waves Ship Positions

Us Warship 105

Last reported at 2018-Feb-10 08:44 UTC. Time now 2018-Apr-21 02:17 UTC.
Position N 32°45' W 118°09'.
Warning: this ship's position is months out of date.

Type: Military. MMSI: 382933000.

Date/timePositionNaut miles runAvg speedWind from/ knotsBaromVisibWave heightAir tempDewpointWater temp
2018-Feb-10 08:44N 32°45' W 118°09'0 2.0
2018-Feb-10 08:29N 32°45' W 118°09'5 9.1
2018-Feb-10 07:59N 32°42' W 118°14'810.4
2018-Feb-10 07:13N 32°50' W 118°14'2 7.8
2018-Feb-10 07:00N 32°52' W 118°14'11 8.0
2018-Feb-10 05:35N 32°41' W 118°14'1 9.6
2018-Feb-10 05:30N 32°40' W 118°14'5 9.1
2018-Feb-10 05:01N 32°36' W 118°11'4 8.1
2018-Feb-10 04:30N 32°37' W 118°06'3 6.3
2018-Feb-10 04:00N 32°40' W 118°05'714.1
2018-Feb-10 03:29N 32°40' W 117°56'815.8
2018-Feb-10 03:00N 32°37' W 117°47'916.6
2018-Feb-10 02:30N 32°36' W 117°37'1016.1
2018-Feb-10 01:54N 32°36' W 117°26'6 7.7
2018-Feb-10 01:04N 32°35' W 117°18'0 2.5
2018-Feb-10 01:00N 32°36' W 117°18'714.1
2018-Feb-10 00:30N 32°39' W 117°25'1 1.7
2018-Feb-10 00:00N 32°39' W 117°26'2 3.0
2018-Feb-09 23:29N 32°38' W 117°25'5 3.0
2018-Feb-09 21:55N 32°37' W 117°19'2 1.6
2018-Feb-09 20:31N 32°35' W 117°19'4 8.5
2018-Feb-09 20:00N 32°36' W 117°24'2323.0
2018-Feb-09 19:00N 32°52' W 117°44'1223.8
2018-Feb-09 18:30N 33°00' W 117°54'917.2
2018-Feb-09 18:00N 33°05' W 118°03'3517.3
2018-Feb-09 16:00N 32°44' W 117°30'3 3.1
2018-Feb-09 15:00N 32°42' W 117°33'4 8.3
2018-Feb-09 14:30N 32°43' W 117°38'4 8.9
2018-Feb-09 14:00N 32°44' W 117°43'1010.4
2018-Feb-09 13:01N 32°45' W 117°55'4 2.9
2018-Feb-09 11:30N 32°41' W 117°58'1 0.4
2018-Feb-09 09:00N 32°41' W 117°59'7 4.7
2018-Feb-09 07:30N 32°37' W 117°52'5 9.2
2018-Feb-09 07:00N 32°36' W 117°47'4 9.0
2018-Feb-09 06:30N 32°39' W 117°42'10 4.0
2018-Feb-09 04:00N 32°48' W 117°36'5 3.2
2018-Feb-09 02:30N 32°43' W 117°34'917.7
2018-Feb-09 02:00N 32°43' W 117°44'1413.6
2018-Feb-09 01:00N 32°40' W 117°60'612.9
2018-Feb-09 00:30N 32°40' W 118°08'612.9
2018-Feb-09 00:00N 32°40' W 118°15'1212.0
2018-Feb-08 23:00N 32°40' W 118°29'611.2
2018-Feb-08 22:30N 32°40' W 118°36'12 4.9
2018-Feb-08 20:00N 32°35' W 118°49'714.6
2018-Feb-08 19:30N 32°35' W 118°58'2 1.6
2018-Feb-08 18:00N 32°36' W 118°56'1313.2
2018-Feb-08 17:00N 32°36' W 118°40'3112.4
2018-Feb-08 14:30N 32°45' W 118°05'2 4.7
2018-Feb-08 14:00N 32°48' W 118°04'2 4.3
2018-Feb-08 13:30N 32°50' W 118°03'5 3.0
2018-Feb-08 12:00N 32°47' W 117°59'2 4.7
2018-Feb-08 11:30N 32°47' W 117°56'5 9.6
2018-Feb-08 11:00N 32°46' W 117°51'2 1.6
2018-Feb-08 10:00N 32°45' W 117°49'30 0.9
2018-Feb-07 00:37N 32°42' W 117°14'0 0.7
2018-Feb-07 00:29N 32°42' W 117°14'0 0.0
2018-Feb-07 00:00N 32°42' W 117°14'0 0.0
2018-Feb-06 23:30N 32°42' W 117°14'0 0.0
2018-Feb-06 23:00N 32°42' W 117°14'0 0.0
2018-Feb-06 22:00N 32°42' W 117°14'0 0.0
2018-Feb-06 21:00N 32°42' W 117°14'0 0.0
2018-Feb-06 20:29N 32°42' W 117°14'0 0.0
2018-Feb-06 20:00N 32°42' W 117°14'0 0.0
2018-Feb-06 19:27N 32°42' W 117°14'0 0.4
2018-Feb-06 18:56N 32°42' W 117°14'4 6.3
2018-Feb-06 18:22N 32°42' W 117°10'  

Dump ship's entire track history